Time;durP1;ratioP1;P1;durP2;ratioP2;P2;SDS_P1;SDS_P2;PMS_P1;PMS_P2;Temp;Humidity;BMP_temperature;BMP_pressure;BME280_temperature;BME280_humidity;BME280_pressure;Samples;Min_cycle;Max_cycle;Signal;HPM_P1;HPM_P2
2023/04/15 00:00:38;;;;;;;8.00;4.38;;;;;;;-146.27;78.84;83736.34;5092987;28;20024;-65
2023/04/15 00:03:04;;;;;;;11.75;4.65;;;;;;;-146.27;79.21;83736.34;5092246;28;20078;-64
2023/04/15 00:05:31;;;;;;;8.93;4.72;;;;;;;-146.27;78.78;83750.41;5083143;28;20036;-64
2023/04/15 00:07:57;;;;;;;9.40;4.38;;;;;;;-146.27;79.52;83734.31;5088564;28;20131;-64
2023/04/15 00:10:23;;;;;;;8.75;4.45;;;;;;;-146.27;77.64;83744.38;5088056;28;20024;-64
2023/04/15 00:12:49;;;;;;;9.38;4.95;;;;;;;-146.27;78.76;83750.41;5091424;28;20036;-66
2023/04/15 00:15:15;;;;;;;7.70;5.57;;;;;;;-146.27;77.82;83710.22;5089604;28;20042;-65
2023/04/15 00:17:40;;;;;;;10.27;5.13;;;;;;;-146.27;78.53;83786.56;5092255;28;20035;-65
2023/04/15 00:20:06;;;;;;;12.02;4.78;;;;;;;-146.27;79.25;83764.47;5088808;28;20284;-64
2023/04/15 00:22:31;;;;;;;10.18;5.05;;;;;;;-146.27;78.17;83800.63;5093501;28;20026;-66
2023/04/15 00:24:57;;;;;;;15.52;5.82;;;;;;;-146.27;78.17;83814.72;5093453;28;20521;-65
2023/04/15 00:27:22;;;;;;;9.00;4.65;;;;;;;-146.27;77.79;83804.66;5090912;28;20474;-65
2023/04/15 00:29:48;;;;;;;9.30;5.40;;;;;;;-146.27;77.75;83830.78;5089778;28;20028;-64
2023/04/15 00:32:13;;;;;;;9.40;5.60;;;;;;;-146.27;78.99;83822.75;5086855;28;20032;-64
2023/04/15 00:34:38;;;;;;;14.05;5.70;;;;;;;-146.27;79.89;83802.66;5091224;28;20472;-65
2023/04/15 00:37:04;;;;;;;9.52;5.40;;;;;;;-146.27;78.73;83856.91;5082028;28;20384;-64
2023/04/15 00:39:29;;;;;;;8.48;5.75;;;;;;;-146.27;80.18;83846.84;5087530;28;20066;-65
2023/04/15 00:41:56;;;;;;;9.88;5.85;;;;;;;-146.27;78.88;83816.72;5093332;28;20428;-64
2023/04/15 00:44:22;;;;;;;14.75;6.07;;;;;;;-146.27;79.31;83846.84;5092281;28;20027;-65
2023/04/15 00:46:50;;;;;;;9.45;5.43;;;;;;;-146.27;79.09;83846.84;5092302;28;20488;-65
2023/04/15 00:49:17;;;;;;;12.35;5.60;;;;;;;-146.27;78.57;83852.88;5085224;28;20047;-65
2023/04/15 00:51:43;;;;;;;13.27;5.25;;;;;;;-146.27;78.88;83838.81;5087416;28;20073;-65
2023/04/15 00:54:09;;;;;;;12.70;5.28;;;;;;;-146.27;77.99;83850.88;5086396;28;20373;-65
2023/04/15 00:56:36;;;;;;;12.52;6.53;;;;;;;-146.27;79.19;83852.88;5090987;28;20362;-64
2023/04/15 00:59:02;;;;;;;9.70;5.60;;;;;;;-146.27;79.53;83866.97;5088382;28;20504;-65
2023/04/15 01:01:28;;;;;;;12.40;5.57;;;;;;;-146.27;79.46;83858.91;5084881;28;20047;-65
2023/04/15 01:03:56;;;;;;;7.85;5.70;;;;;;;-146.27;77.75;83828.78;5090666;28;20464;-66
2023/04/15 01:06:22;;;;;;;10.95;5.40;;;;;;;-146.27;78.76;83864.94;5089404;28;20047;-65
2023/04/15 01:08:47;;;;;;;9.40;5.65;;;;;;;-146.27;77.85;83854.91;5088994;28;20032;-64
2023/04/15 01:11:14;;;;;;;13.27;5.93;;;;;;;-146.27;79.37;83842.84;5083994;28;20032;-65
2023/04/15 01:13:40;;;;;;;11.23;6.35;;;;;;;-146.27;80.06;83862.94;5090167;28;20032;-65
2023/04/15 01:16:07;;;;;;;13.95;5.88;;;;;;;-146.27;80.42;83848.88;5089975;28;20024;-65
2023/04/15 01:18:33;;;;;;;9.77;6.28;;;;;;;-146.27;79.80;83870.97;5082904;28;20059;-65
2023/04/15 01:21:02;;;;;;;12.48;6.15;;;;;;;-146.27;80.90;83864.94;5090995;28;20103;-66
2023/04/15 01:23:28;;;;;;;13.77;6.05;;;;;;;-146.27;80.98;83895.09;5091553;28;20043;-65
2023/04/15 01:25:55;;;;;;;10.60;5.55;;;;;;;-146.27;81.11;83917.19;5084833;28;20055;-64
2023/04/15 01:28:21;;;;;;;9.73;5.28;;;;;;;-146.27;80.47;83907.16;5086882;28;20024;-65
2023/04/15 01:30:46;;;;;;;9.02;5.43;;;;;;;-146.27;80.55;83911.16;5091011;28;20111;-65
2023/04/15 01:33:12;;;;;;;9.23;5.65;;;;;;;-146.27;82.02;83899.09;5082819;28;20120;-64
2023/04/15 01:35:37;;;;;;;14.68;6.30;;;;;;;-146.27;81.81;83901.13;5081767;28;20024;-64
2023/04/15 01:38:06;;;;;;;13.25;7.00;;;;;;;-146.27;84.13;83931.25;5089455;28;20020;-66
2023/04/15 01:40:32;;;;;;;16.42;6.72;;;;;;;-146.27;82.81;83917.19;5089709;28;20028;-64
2023/04/15 01:42:58;;;;;;;10.05;5.93;;;;;;;-146.27;83.01;83947.34;5090926;28;20437;-64
2023/04/15 01:45:23;;;;;;;9.55;5.43;;;;;;;-146.27;82.38;83923.22;5092516;28;20024;-65
2023/04/15 01:47:49;;;;;;;10.27;6.63;;;;;;;-146.27;83.04;83941.31;5088589;28;20036;-66
2023/04/15 01:50:14;;;;;;;11.70;6.70;;;;;;;-146.27;83.69;83913.19;5090110;28;20523;-66
2023/04/15 01:52:40;;;;;;;9.45;5.70;;;;;;;-146.27;81.98;83971.47;5091157;28;20039;-65
2023/04/15 01:55:07;;;;;;;10.05;5.60;;;;;;;-146.27;83.38;83935.28;5092131;28;20032;-65
2023/04/15 01:57:33;;;;;;;9.73;6.07;;;;;;;-146.27;85.07;83983.50;5087605;28;20478;-64
2023/04/15 01:59:58;;;;;;;17.65;6.65;;;;;;;-146.27;85.25;83983.50;5092395;28;20095;-65
2023/04/15 02:02:24;;;;;;;15.20;6.65;;;;;;;-146.27;86.07;84025.72;5092191;28;20028;-65
2023/04/15 02:04:50;;;;;;;11.07;6.25;;;;;;;-146.27;85.94;84073.94;5087852;28;20388;-64
2023/04/15 02:07:15;;;;;;;9.35;6.00;;;;;;;-146.27;86.54;83965.44;5087762;28;20050;-64
2023/04/15 02:09:40;;;;;;;9.45;6.32;;;;;;;-146.27;85.87;83975.47;5086813;28;20055;-65
2023/04/15 02:12:06;;;;;;;8.82;6.40;;;;;;;-146.27;86.79;83977.47;5089765;28;20652;-64
2023/04/15 02:14:31;;;;;;;10.23;5.95;;;;;;;-146.27;86.27;84001.59;5088857;28;20024;-66
2023/04/15 02:16:56;;;;;;;15.18;6.95;;;;;;;-146.27;87.23;83975.47;5091954;28;20028;-64
2023/04/15 02:19:22;;;;;;;10.98;6.75;;;;;;;-146.27;86.79;83949.34;5090207;28;20028;-64
2023/04/15 02:21:47;;;;;;;13.88;7.03;;;;;;;-146.27;86.97;83971.47;5087532;28;20078;-66
2023/04/15 02:24:12;;;;;;;12.45;6.32;;;;;;;-146.27;87.16;83955.38;5077677;28;20020;-65
2023/04/15 02:26:38;;;;;;;12.77;6.00;;;;;;;-146.27;87.78;83977.47;5090688;28;20486;-66
2023/04/15 02:29:03;;;;;;;9.88;6.78;;;;;;;-146.27;86.35;83995.56;5089669;28;20020;-65
2023/04/15 02:31:29;;;;;;;11.02;5.53;;;;;;;-146.27;87.38;83907.16;5082439;28;20111;-65
2023/04/15 02:33:54;;;;;;;12.85;6.28;;;;;;;-146.27;87.05;83975.47;5088106;28;20020;-65
2023/04/15 02:36:20;;;;;;;8.98;6.05;;;;;;;-146.27;87.19;84001.59;5081648;28;20039;-66
2023/04/15 02:38:45;;;;;;;15.02;5.80;;;;;;;-146.27;86.75;83985.53;5089686;28;20032;-65
2023/04/15 02:41:11;;;;;;;9.98;6.40;;;;;;;-146.27;86.48;83995.56;5084882;28;20025;-64
2023/04/15 02:43:38;;;;;;;9.35;5.95;;;;;;;-146.27;86.25;83969.44;5089196;28;20039;-65
2023/04/15 02:46:04;;;;;;;10.38;5.68;;;;;;;-146.27;87.22;83991.56;5089983;28;20039;-64
2023/04/15 02:48:29;;;;;;;14.15;6.18;;;;;;;-146.27;86.98;84003.59;5086487;28;20395;-65
2023/04/15 02:51:13;;;;;;;9.45;6.18;;;;;;;-146.27;87.11;83959.41;5090028;28;20409;-64
2023/04/15 02:53:40;;;;;;;10.10;5.57;;;;;;;-146.27;86.93;83979.50;5091262;28;20089;-65
2023/04/15 02:56:06;;;;;;;12.05;6.18;;;;;;;-146.27;87.92;83983.50;5091567;28;20069;-64
2023/04/15 02:58:31;;;;;;;11.35;6.22;;;;;;;-146.27;87.90;84011.66;5089778;28;20020;-65
2023/04/15 03:00:56;;;;;;;16.05;6.45;;;;;;;-146.27;88.18;84007.63;5082632;28;20031;-65
2023/04/15 03:03:22;;;;;;;9.38;6.38;;;;;;;-146.27;88.48;84003.59;5088568;28;20047;-64
2023/04/15 03:05:47;;;;;;;11.65;6.32;;;;;;;-146.27;89.66;84019.69;5091016;28;20055;-64
2023/04/15 03:08:13;;;;;;;12.10;5.97;;;;;;;-146.27;89.00;84003.59;5089058;28;20032;-65
2023/04/15 03:10:39;;;;;;;9.68;6.03;;;;;;;-146.27;88.92;84003.59;5084705;28;20516;-66
2023/04/15 03:13:04;;;;;;;9.30;6.28;;;;;;;-146.27;89.24;83973.47;5090518;28;20111;-64
2023/04/15 03:15:30;;;;;;;9.85;6.55;;;;;;;-146.27;88.76;83977.47;5085518;28;20024;-65
2023/04/15 03:17:56;;;;;;;8.40;5.78;;;;;;;-146.27;89.50;84015.66;5088833;28;20036;-66
2023/04/15 03:20:22;;;;;;;10.43;5.88;;;;;;;-146.27;89.26;83999.59;5089703;28;20027;-65
2023/04/15 03:22:47;;;;;;;11.75;6.30;;;;;;;-146.27;89.46;84005.63;5091730;28;20356;-66
2023/04/15 03:25:12;;;;;;;10.40;6.72;;;;;;;-146.27;90.40;84009.63;5090825;28;20016;-65
2023/04/15 03:27:38;;;;;;;9.95;6.10;;;;;;;-146.27;90.05;84051.84;5087793;28;20036;-64
2023/04/15 03:30:04;;;;;;;10.85;6.07;;;;;;;-146.27;90.04;83995.56;5088133;28;20024;-65
2023/04/15 03:32:29;;;;;;;9.95;6.60;;;;;;;-146.27;90.22;84027.72;5085847;28;20040;-65
2023/04/15 03:34:54;;;;;;;11.32;6.13;;;;;;;-146.27;89.70;84055.84;5086468;28;20119;-65
2023/04/15 03:37:20;;;;;;;6.82;5.65;;;;;;;-146.27;89.98;84037.78;5092130;28;20035;-66
2023/04/15 03:39:45;;;;;;;10.05;6.43;;;;;;;-146.27;90.41;84041.78;5094418;28;20092;-66
2023/04/15 03:42:11;;;;;;;10.38;5.95;;;;;;;-146.27;90.88;84019.69;5092995;28;20068;-64
2023/04/15 03:44:36;;;;;;;11.48;6.53;;;;;;;-146.27;92.49;84035.75;5093451;28;20084;-64
2023/04/15 03:47:01;;;;;;;10.80;6.55;;;;;;;-146.27;92.68;84011.66;5088875;28;20093;-64
2023/04/15 03:49:27;;;;;;;9.57;6.40;;;;;;;-146.27;92.37;84047.81;5087433;28;20035;-64
2023/04/15 03:51:52;;;;;;;9.18;6.35;;;;;;;-146.27;93.00;84047.81;5094378;28;20379;-64
2023/04/15 03:54:17;;;;;;;9.10;6.15;;;;;;;-146.27;92.76;84031.75;5081238;28;20081;-65
2023/04/15 03:56:42;;;;;;;11.70;7.40;;;;;;;-146.27;93.01;84039.78;5081277;28;20516;-63
2023/04/15 03:59:08;;;;;;;12.60;6.45;;;;;;;-146.27;93.79;84063.91;5092660;28;20345;-66
2023/04/15 04:01:34;;;;;;;9.35;6.25;;;;;;;-146.27;93.53;84049.84;5082766;28;20071;-65
2023/04/15 04:03:59;;;;;;;10.75;6.72;;;;;;;-146.27;94.44;84031.75;5090051;28;20024;-65
2023/04/15 04:06:25;;;;;;;12.40;6.68;;;;;;;-146.27;94.38;84067.91;5092208;28;20488;-66
2023/04/15 04:08:50;;;;;;;11.52;6.72;;;;;;;-146.27;93.79;84053.84;5088261;28;20035;-66
2023/04/15 04:11:16;;;;;;;11.35;6.15;;;;;;;-146.27;93.71;84077.97;5092987;28;20020;-65
2023/04/15 04:13:41;;;;;;;12.27;6.32;;;;;;;-146.27;94.34;84086.00;5081695;28;20059;-65
2023/04/15 04:16:07;;;;;;;8.73;6.22;;;;;;;-146.27;94.13;84063.91;5089107;28;20063;-64
2023/04/15 04:18:32;;;;;;;8.98;6.45;;;;;;;-146.27;95.07;84112.13;5084079;28;20016;-65
2023/04/15 04:20:58;;;;;;;9.18;6.20;;;;;;;-146.27;95.47;84065.91;5085672;28;20399;-65
2023/04/15 04:23:23;;;;;;;9.93;5.70;;;;;;;-146.27;95.79;84071.94;5092276;28;20019;-66
2023/04/15 04:25:48;;;;;;;13.82;6.47;;;;;;;-146.27;95.90;84051.84;5093317;28;20483;-65
2023/04/15 04:28:14;;;;;;;11.10;6.10;;;;;;;-146.27;95.67;84084.00;5088941;28;20062;-67
2023/04/15 04:30:39;;;;;;;11.32;6.82;;;;;;;-146.27;95.85;84112.13;5088931;28;20055;-65
2023/04/15 04:33:06;;;;;;;10.90;6.22;;;;;;;-146.27;96.05;84112.13;5091207;28;20972;-64
2023/04/15 04:35:33;;;;;;;15.35;7.53;;;;;;;-146.27;96.68;84120.16;5092617;28;20028;-64
2023/04/15 04:37:59;;;;;;;9.88;6.43;;;;;;;-146.27;96.45;84124.19;5091000;28;20024;-64
2023/04/15 04:40:25;;;;;;;15.32;6.97;;;;;;;-146.27;97.21;84136.25;5092422;28;20053;-65
2023/04/15 04:42:50;;;;;;;10.15;6.53;;;;;;;-146.27;97.83;84128.22;5091727;28;20055;-65
2023/04/15 04:45:15;;;;;;;10.98;6.35;;;;;;;-146.27;97.29;84132.22;5092934;28;20168;-65
2023/04/15 04:47:41;;;;;;;11.95;6.47;;;;;;;-146.27;98.42;84114.13;5088760;28;20059;-65
2023/04/15 04:50:08;;;;;;;11.23;6.43;;;;;;;-146.27;98.04;84156.34;5091553;28;20035;-64
2023/04/15 04:52:33;;;;;;;9.18;6.70;;;;;;;-146.27;97.86;84172.41;5092710;28;20024;-66
2023/04/15 04:54:58;;;;;;;12.25;6.88;;;;;;;-146.27;98.46;84132.22;5091600;28;20046;-65
2023/04/15 04:57:23;;;;;;;9.82;6.63;;;;;;;-146.27;98.86;84172.41;5091973;28;20369;-66
2023/04/15 04:59:49;;;;;;;10.07;6.20;;;;;;;-146.27;100.00;84144.28;5083673;28;20024;-65
2023/04/15 05:02:14;;;;;;;10.65;7.10;;;;;;;-146.27;99.03;84184.47;5090572;28;20041;-65
2023/04/15 05:04:40;;;;;;;9.98;6.07;;;;;;;-146.27;99.64;84204.56;5085344;28;20024;-65
2023/04/15 05:07:05;;;;;;;10.52;7.30;;;;;;;-146.27;100.00;84178.44;5083296;28;20063;-64
2023/04/15 05:09:31;;;;;;;12.45;7.45;;;;;;;-146.27;100.00;84184.47;5083845;28;20078;-65
2023/04/15 05:11:57;;;;;;;10.43;6.88;;;;;;;-146.27;100.00;84202.56;5085285;28;20035;-66
2023/04/15 05:14:22;;;;;;;9.98;6.80;;;;;;;-146.27;100.00;84164.38;5090624;28;20030;-65
2023/04/15 05:16:48;;;;;;;12.43;6.80;;;;;;;-146.27;100.00;84168.41;5092414;28;20019;-65
2023/04/15 05:19:13;;;;;;;16.85;8.00;;;;;;;-146.27;100.00;84184.47;5082066;28;20471;-65
2023/04/15 05:21:38;;;;;;;13.25;6.97;;;;;;;-146.27;100.00;84196.53;5088502;28;20372;-66
2023/04/15 05:24:04;;;;;;;12.20;7.28;;;;;;;-146.27;100.00;84190.50;5088824;28;20070;-64
2023/04/15 05:26:30;;;;;;;17.30;7.35;;;;;;;-146.27;100.00;84174.44;5086064;28;20023;-64
2023/04/15 05:28:55;;;;;;;11.18;6.88;;;;;;;-146.27;100.00;84146.28;5083736;28;20027;-65
2023/04/15 05:31:21;;;;;;;10.35;7.65;;;;;;;-146.27;100.00;84192.50;5085778;28;20035;-65
2023/04/15 05:33:46;;;;;;;13.05;7.05;;;;;;;-146.27;100.00;84192.50;5079040;28;20480;-66
2023/04/15 05:36:12;;;;;;;11.85;6.47;;;;;;;-146.27;100.00;84198.53;5090457;28;20133;-64
2023/04/15 05:38:37;;;;;;;10.02;6.50;;;;;;;-146.27;100.00;84228.69;5089585;28;20034;-65
2023/04/15 05:41:03;;;;;;;12.68;7.45;;;;;;;-146.27;100.00;84186.47;5078632;28;20032;-65
2023/04/15 05:43:29;;;;;;;12.05;7.05;;;;;;;-146.27;100.00;84192.50;5091451;28;20020;-65
2023/04/15 05:45:55;;;;;;;13.05;7.25;;;;;;;-146.27;100.00;84184.47;5087778;28;20035;-65
2023/04/15 05:48:20;;;;;;;11.57;7.22;;;;;;;-146.27;100.00;84160.38;5091965;28;20091;-64
2023/04/15 05:50:46;;;;;;;13.23;7.63;;;;;;;-146.27;100.00;84158.34;5081485;28;20037;-66
2023/04/15 05:53:11;;;;;;;11.93;7.57;;;;;;;-146.27;100.00;84156.34;5086866;28;20063;-64
2023/04/15 05:55:37;;;;;;;11.25;7.70;;;;;;;-146.27;100.00;84110.13;5086405;28;20038;-65
2023/04/15 05:58:02;;;;;;;12.15;6.97;;;;;;;-146.27;100.00;84160.38;5084795;28;20016;-65
2023/04/15 06:00:28;;;;;;;12.13;7.13;;;;;;;-146.27;100.00;84120.16;5088946;28;20472;-65
2023/04/15 06:02:54;;;;;;;12.02;7.47;;;;;;;-146.27;100.00;84114.13;5089735;28;20383;-65
2023/04/15 06:05:20;;;;;;;11.48;7.53;;;;;;;-146.27;100.00;84104.09;5091593;28;20027;-65
2023/04/15 06:07:45;;;;;;;20.52;8.15;;;;;;;-146.27;100.00;84098.06;5088009;28;20059;-66
2023/04/15 06:10:10;;;;;;;13.18;7.93;;;;;;;-146.27;100.00;84086.00;5087383;28;20524;-66
2023/04/15 06:12:36;;;;;;;10.60;7.50;;;;;;;-146.27;100.00;84067.91;5091352;28;20020;-64
2023/04/15 06:15:01;;;;;;;12.50;7.70;;;;;;;-146.27;100.00;84063.91;5082326;28;20112;-64
2023/04/15 06:17:27;;;;;;;12.02;7.43;;;;;;;-146.27;100.00;84035.75;5086772;28;20024;-64
2023/04/15 06:19:55;;;;;;;14.20;8.40;;;;;;;-146.27;100.00;84035.75;5089117;28;20024;-66
2023/04/15 06:22:23;;;;;;;12.85;7.82;;;;;;;-146.27;100.00;84017.69;5087659;28;20421;-67
2023/04/15 06:24:50;;;;;;;11.13;7.30;;;;;;;-146.27;100.00;84005.63;5091115;28;20024;-68
2023/04/15 06:27:16;;;;;;;16.00;8.15;;;;;;;-146.27;100.00;84021.69;5085391;28;20077;-66
2023/04/15 06:29:41;;;;;;;12.70;7.70;;;;;;;-146.27;100.00;83995.56;5087862;28;20055;-66
2023/04/15 06:32:07;;;;;;;13.85;7.50;;;;;;;-146.27;100.00;84017.69;5088163;28;20471;-66
2023/04/15 06:34:32;;;;;;;12.73;8.02;;;;;;;-146.27;100.00;83983.50;5081712;28;20093;-67
2023/04/15 06:36:58;;;;;;;11.30;7.55;;;;;;;-146.27;100.00;83975.47;5089717;28;20027;-67
2023/04/15 06:39:23;;;;;;;13.15;7.75;;;;;;;-146.27;100.00;83961.41;5088720;28;20028;-66
2023/04/15 06:41:48;;;;;;;17.90;7.35;;;;;;;-146.27;100.00;83965.44;5089472;28;20099;-66
2023/04/15 06:44:14;;;;;;;15.10;7.82;;;;;;;-146.27;100.00;83971.47;5088343;28;20099;-67
2023/04/15 06:46:40;;;;;;;12.88;8.27;;;;;;;-146.27;100.00;83975.47;5087531;28;20042;-67
2023/04/15 06:49:05;;;;;;;9.63;7.22;;;;;;;-146.27;100.00;83933.28;5084097;28;20016;-66
2023/04/15 06:51:31;;;;;;;14.65;7.60;;;;;;;-146.27;100.00;83955.38;5085884;28;20039;-66
2023/04/15 06:53:57;;;;;;;12.60;7.57;;;;;;;-146.27;100.00;83923.22;5087322;28;20028;-67
2023/04/15 06:56:22;;;;;;;10.45;6.97;;;;;;;-146.27;100.00;83927.25;5079840;28;20023;-65
2023/04/15 06:58:48;;;;;;;14.80;8.05;;;;;;;-146.27;100.00;83961.41;5089061;28;20035;-66
2023/04/15 07:01:13;;;;;;;11.80;7.45;;;;;;;-146.27;100.00;83923.22;5092489;28;20031;-66
2023/04/15 07:03:38;;;;;;;14.40;7.53;;;;;;;-146.27;100.00;83903.13;5090596;28;20024;-66
2023/04/15 07:06:05;;;;;;;9.90;7.45;;;;;;;-146.27;100.00;83903.13;5090351;28;20092;-65
2023/04/15 07:08:32;;;;;;;10.18;7.93;;;;;;;-146.27;100.00;83895.09;5089643;28;20356;-65
2023/04/15 07:10:58;;;;;;;10.82;7.63;;;;;;;-146.27;100.00;83846.84;5094278;28;20024;-67
2023/04/15 07:13:24;;;;;;;14.05;8.10;;;;;;;-146.27;100.00;83883.03;5092829;28;20036;-66
2023/04/15 07:15:49;;;;;;;30.92;8.88;;;;;;;-146.27;100.00;83875.00;5093722;28;20016;-65
2023/04/15 07:18:15;;;;;;;23.85;9.32;;;;;;;-146.27;99.48;83875.00;5090893;28;20047;-65
2023/04/15 07:20:40;;;;;;;9.93;7.40;;;;;;;-146.27;98.58;83844.84;5088974;28;20073;-66
2023/04/15 07:23:06;;;;;;;11.43;7.20;;;;;;;-146.27;98.62;83838.81;5091439;28;20429;-65
2023/04/15 07:25:31;;;;;;;10.38;7.43;;;;;;;-146.27;98.62;83810.69;5089493;28;20102;-67
2023/04/15 07:27:57;;;;;;;11.48;7.70;;;;;;;-146.27;98.44;83881.03;5090803;28;20120;-66
2023/04/15 07:30:22;;;;;;;13.30;7.00;;;;;;;-146.27;97.81;83790.59;5090424;28;20380;-66
2023/04/15 07:32:48;;;;;;;12.60;7.68;;;;;;;-146.27;97.13;83812.69;5089375;28;20103;-65
2023/04/15 07:35:13;;;;;;;9.00;6.63;;;;;;;-146.27;97.19;83800.63;5093105;28;20016;-65
2023/04/15 07:37:38;;;;;;;11.20;6.93;;;;;;;-146.27;96.93;83744.38;5090844;28;20592;-66
2023/04/15 07:40:06;;;;;;;12.00;7.88;;;;;;;-146.27;96.87;83762.47;5092967;28;20032;-66
2023/04/15 07:42:32;;;;;;;9.95;7.65;;;;;;;-146.27;96.57;83728.31;5092504;28;20054;-68
2023/04/15 07:44:58;;;;;;;11.82;7.72;;;;;;;-146.27;96.02;83748.41;5087376;28;20364;-66
2023/04/15 07:47:23;;;;;;;14.45;7.32;;;;;;;-146.27;96.20;83710.22;5089737;28;20077;-67
2023/04/15 07:49:50;;;;;;;13.50;7.18;;;;;;;-146.27;95.81;83748.41;5088817;28;20106;-67
2023/04/15 07:52:16;;;;;;;13.05;8.05;;;;;;;-146.27;95.80;83708.22;5087731;28;20020;-67
2023/04/15 07:54:41;;;;;;;10.85;7.53;;;;;;;-146.27;95.95;83694.13;5086053;28;20035;-66
2023/04/15 07:57:06;;;;;;;10.52;7.40;;;;;;;-146.27;95.64;83670.03;5087306;28;20048;-66
2023/04/15 07:59:32;;;;;;;12.77;7.60;;;;;;;-146.27;95.45;83653.94;5084263;28;20035;-66
2023/04/15 08:01:58;;;;;;;12.10;7.80;;;;;;;-146.27;94.73;83645.91;5088569;28;20419;-66
2023/04/15 08:04:23;;;;;;;10.82;7.30;;;;;;;-146.27;92.81;83633.84;5092519;28;20023;-65
2023/04/15 08:06:49;;;;;;;10.35;6.20;;;;;;;-146.27;92.25;83629.84;5087379;28;20078;-67
2023/04/15 08:09:15;;;;;;;10.88;6.60;;;;;;;-146.27;91.00;83613.75;5089430;28;20062;-67
2023/04/15 08:11:40;;;;;;;8.60;6.18;;;;;;;-146.27;90.44;83593.66;5087030;28;20055;-66
2023/04/15 08:14:06;;;;;;;10.35;7.20;;;;;;;-146.27;91.07;83553.47;5086981;28;20459;-65
2023/04/15 08:16:32;;;;;;;12.38;6.97;;;;;;;-146.27;89.92;83543.44;5079482;28;20028;-66
2023/04/15 08:18:57;;;;;;;11.55;6.53;;;;;;;-146.27;88.74;83499.22;5094053;28;20030;-65
2023/04/15 08:21:23;;;;;;;10.77;6.32;;;;;;;-146.27;87.48;83527.34;5091293;28;20035;-66
2023/04/15 08:23:51;;;;;;;10.93;6.35;;;;;;;-146.27;86.38;83521.34;5088217;28;20069;-66
2023/04/15 08:26:17;;;;;;;16.75;7.47;;;;;;;-146.27;87.62;83527.34;5092934;28;20039;-66
2023/04/15 08:28:44;;;;;;;9.60;6.50;;;;;;;-146.27;87.54;83440.94;5084888;28;20382;-65
2023/04/15 08:31:09;;;;;;;11.35;6.15;;;;;;;-146.27;85.26;83430.91;5089678;28;20019;-67
2023/04/15 08:33:35;;;;;;;8.88;6.13;;;;;;;-146.27;83.66;83444.97;5092862;28;20077;-65
2023/04/15 08:36:01;;;;;;;10.55;6.22;;;;;;;-146.27;82.55;83418.84;5090150;28;20460;-66
2023/04/15 08:38:26;;;;;;;8.73;5.18;;;;;;;-146.27;81.37;83485.16;5092096;28;20089;-66
2023/04/15 08:40:52;;;;;;;6.93;5.10;;;;;;;-146.27;80.74;83400.78;5082471;28;20108;-66
2023/04/15 08:43:23;;;;;;;6.97;5.20;;;;;;;-146.27;80.37;83404.78;5090578;28;20048;-66
2023/04/15 08:45:50;;;;;;;6.55;5.13;;;;;;;-146.27;78.98;83342.50;5085761;28;20024;-67
2023/04/15 08:48:16;;;;;;;7.70;5.07;;;;;;;-146.27;78.60;83348.53;5092450;28;20369;-66
2023/04/15 08:50:42;;;;;;;6.28;5.03;;;;;;;-146.27;78.84;83316.38;5085402;28;20020;-65
2023/04/15 08:53:09;;;;;;;8.55;5.55;;;;;;;-146.27;79.24;83288.25;5085384;28;20036;-67
2023/04/15 08:55:38;;;;;;;7.60;5.57;;;;;;;-146.27;78.73;83254.09;5085055;28;20031;-66
2023/04/15 08:58:04;;;;;;;8.45;5.30;;;;;;;-146.27;77.19;83256.09;5089607;28;20024;-65
2023/04/15 09:00:32;;;;;;;10.60;5.45;;;;;;;-146.27;76.86;83256.09;5083232;28;20033;-65
2023/04/15 09:02:58;;;;;;;10.77;5.90;;;;;;;-146.27;76.03;83211.91;5088267;28;20023;-68
2023/04/15 09:05:24;;;;;;;13.73;5.80;;;;;;;-146.27;74.72;83187.78;5082798;28;20467;-65
2023/04/15 09:07:50;;;;;;;9.63;5.82;;;;;;;-146.27;73.26;83143.59;5091781;28;20054;-66
2023/04/15 09:10:16;;;;;;;7.78;5.70;;;;;;;-146.27;73.31;83129.53;5090073;28;20415;-65
2023/04/15 09:12:41;;;;;;;11.00;5.35;;;;;;;-146.27;71.52;83129.53;5076051;28;20035;-68
2023/04/15 09:15:09;;;;;;;10.02;6.03;;;;;;;-146.27;71.41;83111.44;5079571;28;20032;-66
2023/04/15 09:17:41;;;;;;;9.15;4.78;;;;;;;-146.27;70.02;83039.09;5077808;28;20048;-67
2023/04/15 09:20:12;;;;;;;9.18;5.07;;;;;;;-146.27;69.18;83063.22;5086454;28;20305;-67
2023/04/15 09:22:39;;;;;;;6.43;4.53;;;;;;;-146.27;67.08;82962.75;5087760;28;20389;-66
2023/04/15 09:25:27;;;;;;;10.07;4.65;;;;;;;-146.27;66.24;83023.03;5084139;28;20095;-66
2023/04/15 09:28:02;;;;;;;11.35;4.80;;;;;;;-146.27;64.87;82974.81;5081533;28;20060;-65
2023/04/15 09:30:27;;;;;;;8.32;4.57;;;;;;;-146.27;64.46;82998.94;5089670;28;20026;-66
2023/04/15 09:32:58;;;;;;;9.35;4.60;;;;;;;-146.27;65.17;82996.91;5075840;28;20036;-67
2023/04/15 09:35:26;;;;;;;7.78;4.00;;;;;;;-146.27;63.15;82966.78;5078153;28;20054;-65
2023/04/15 09:37:52;;;;;;;6.20;3.40;;;;;;;-146.27;61.67;83004.94;5092922;28;20028;-66
2023/04/15 09:40:42;;;;;;;6.40;3.40;;;;;;;-146.27;57.04;83002.94;5091274;28;20028;-65
2023/04/15 09:43:08;;;;;;;8.15;3.60;;;;;;;-146.27;59.45;82976.81;5084259;28;20512;-66
2023/04/15 09:45:36;;;;;;;5.45;3.83;;;;;;;-146.27;58.55;82938.66;5075723;28;20077;-66
2023/04/15 09:48:34;;;;;;;5.32;3.30;;;;;;;-146.27;59.17;82894.47;5083477;28;20384;-65
2023/04/15 09:51:00;;;;;;;5.90;3.03;;;;;;;-146.27;58.64;82880.41;5053134;28;20480;-67
2023/04/15 09:53:26;;;;;;;6.07;3.17;;;;;;;-146.27;60.95;82828.16;5084272;28;20016;-65
2023/04/15 09:55:56;;;;;;;3.75;3.00;;;;;;;-146.27;57.96;82846.25;5089006;28;20031;-65
2023/04/15 09:58:27;;;;;;;8.45;3.30;;;;;;;-146.27;57.05;82792.00;5084980;28;20482;-66
2023/04/15 10:00:55;;;;;;;6.45;2.83;;;;;;;-146.27;57.89;82810.06;5085049;28;20520;-66
2023/04/15 10:03:23;;;;;;;5.90;3.17;;;;;;;-146.27;57.12;82749.81;5086313;28;20495;-65
2023/04/15 10:05:50;;;;;;;4.22;2.47;;;;;;;-146.27;54.86;82675.47;5083548;28;20043;-66
2023/04/15 10:08:21;;;;;;;4.68;2.67;;;;;;;-146.27;52.33;82657.41;5087395;28;20145;-66
2023/04/15 10:10:47;;;;;;;3.53;2.83;;;;;;;-146.27;52.62;82593.09;5090563;28;20064;-67
2023/04/15 10:13:16;;;;;;;3.25;2.42;;;;;;;-146.27;53.38;82542.88;5085324;28;20039;-65
2023/04/15 10:15:50;;;;;;;6.90;2.22;;;;;;;-146.27;50.23;82528.81;5080126;28;20032;-66
2023/04/15 10:18:18;;;;;;;3.72;2.30;;;;;;;-146.27;46.54;82514.75;5090884;28;20024;-66
2023/04/15 10:20:44;;;;;;;5.88;2.50;;;;;;;-146.27;48.58;82494.66;5091720;28;20077;-65
2023/04/15 10:23:11;;;;;;;3.85;2.25;;;;;;;-146.27;47.25;82524.81;5089702;28;20031;-66
2023/04/15 10:25:37;;;;;;;4.43;2.45;;;;;;;-146.27;46.66;82476.59;5090154;28;20471;-65
2023/04/15 10:28:05;;;;;;;7.72;2.45;;;;;;;-146.27;48.46;82468.56;5086949;28;20476;-66
2023/04/15 10:30:32;;;;;;;4.45;2.58;;;;;;;-146.27;48.14;82428.38;5079496;28;20029;-66
2023/04/15 10:32:58;;;;;;;4.40;1.65;;;;;;;-146.27;45.62;82348.03;5087539;28;20024;-67
2023/04/15 10:35:23;;;;;;;4.97;2.10;;;;;;;-146.27;46.04;82303.84;5093426;28;20138;-66
2023/04/15 10:37:49;;;;;;;4.97;2.50;;;;;;;-146.27;43.98;82275.72;5090828;28;20102;-67
2023/04/15 10:40:30;;;;;;;2.53;1.80;;;;;;;-146.27;43.60;82283.75;5089655;28;20085;-66
2023/04/15 10:43:00;;;;;;;3.83;1.80;;;;;;;-146.27;44.29;82215.44;5087938;28;20027;-65
2023/04/15 10:45:27;;;;;;;4.00;2.65;;;;;;;-146.27;44.52;82215.44;5090703;28;20032;-66
2023/04/15 10:47:57;;;;;;;6.20;2.80;;;;;;;-146.27;45.60;82223.47;5090944;28;20300;-66
2023/04/15 10:50:28;;;;;;;7.18;2.75;;;;;;;-146.27;45.42;82295.81;5089228;28;20043;-66
2023/04/15 10:52:55;;;;;;;4.32;2.60;;;;;;;-146.27;46.14;82203.41;5087766;28;20505;-66
2023/04/15 10:55:22;;;;;;;7.32;2.88;;;;;;;-146.27;44.76;82215.44;5094688;28;20425;-65
2023/04/15 10:57:58;;;;;;;5.45;2.50;;;;;;;-146.27;44.95;82121.03;5086422;28;20043;-67
2023/04/15 11:00:34;;;;;;;4.18;2.63;;;;;;;-146.27;44.43;82143.13;5084081;28;20030;-67
2023/04/15 11:03:06;;;;;;;2.70;2.00;;;;;;;-146.27;43.60;82070.81;5078620;28;20027;-66
2023/04/15 11:05:40;;;;;;;5.97;2.50;;;;;;;-146.27;43.06;82014.59;5091918;28;20027;-66
2023/04/15 11:08:07;;;;;;;4.85;2.85;;;;;;;-146.27;44.29;82062.78;5081165;28;20040;-66